Time,TemperatureF,DewpointF,PressureIn,WindDirection,WindDirectionDegrees,WindSpeedMPH,WindSpeedGustMPH,Humidity,HourlyPrecipIn,Conditions,Clouds,dailyrainin,SoftwareType,DateUTC
2013-02-03 00:01:00,33.3,29.5,-100.00,SW,219,0.0,0.0,86,0.00,,,0.00,VWS V14.01,2013-02-03 08:01:00,
2013-02-03 00:06:00,33.3,29.5,-100.00,SW,236,0.0,0.0,86,0.00,,,0.00,VWS V14.01,2013-02-03 08:06:00,
2013-02-03 00:11:00,33.1,29.4,-100.00,SW,222,0.0,0.0,86,0.00,,,0.00,VWS V14.01,2013-02-03 08:11:00,
2013-02-03 00:16:00,32.9,29.2,-100.00,SW,220,2.7,2.7,86,0.00,,,0.00,VWS V14.01,2013-02-03 08:16:00,
2013-02-03 00:21:00,32.9,29.2,-100.00,SW,218,0.0,0.0,86,0.00,,,0.00,VWS V14.01,2013-02-03 08:21:00,
2013-02-03 00:26:00,32.7,29.0,-100.00,SW,222,2.7,2.7,86,0.00,,,0.00,VWS V14.01,2013-02-03 08:26:00,
2013-02-03 00:31:00,32.7,29.3,-100.00,WSW,238,3.6,3.6,87,0.00,,,0.00,VWS V14.01,2013-02-03 08:31:00,
2013-02-03 00:36:00,32.9,29.5,-100.00,SW,223,0.0,2.7,87,0.00,,,0.00,VWS V14.01,2013-02-03 08:36:00,
2013-02-03 00:41:00,32.7,29.3,-100.00,West,269,3.1,3.1,87,0.00,,,0.00,VWS V14.01,2013-02-03 08:41:00,
2013-02-03 00:46:00,32.7,29.3,-100.00,SW,227,2.7,2.7,87,0.00,,,0.00,VWS V14.01,2013-02-03 08:46:00,
2013-02-03 00:51:00,32.7,29.3,-100.00,SW,232,2.2,2.7,87,0.00,,,0.00,VWS V14.01,2013-02-03 08:51:00,
2013-02-03 00:56:00,32.7,29.3,-100.00,SW,232,0.0,0.0,87,0.00,,,0.00,VWS V14.01,2013-02-03 08:56:00,
2013-02-03 01:01:00,32.5,29.1,-100.00,SW,233,0.0,0.0,87,0.00,,,0.00,VWS V14.01,2013-02-03 09:01:00,
2013-02-03 01:06:00,32.4,28.9,-100.00,SSE,149,2.2,3.6,87,0.00,,,0.00,VWS V14.01,2013-02-03 09:06:00,
2013-02-03 01:11:00,32.4,29.2,-100.00,WSW,238,0.0,0.0,88,0.00,,,0.00,VWS V14.01,2013-02-03 09:11:00,
2013-02-03 01:16:00,32.4,28.9,-100.00,SW,222,2.7,2.7,87,0.00,,,0.00,VWS V14.01,2013-02-03 09:16:00,
2013-02-03 01:21:00,32.4,28.9,-100.00,SSE,159,3.1,3.1,87,0.00,,,0.00,VWS V14.01,2013-02-03 09:21:00,
2013-02-03 01:26:00,32.7,29.6,-100.00,SW,231,2.2,2.7,88,0.00,,,0.00,VWS V14.01,2013-02-03 09:26:00,
2013-02-03 01:31:00,32.7,29.6,-100.00,SW,233,2.2,2.7,88,0.00,,,0.00,VWS V14.01,2013-02-03 09:31:00,
2013-02-03 01:36:00,32.7,29.3,-100.00,South,183,0.0,0.0,87,0.00,,,0.00,VWS V14.01,2013-02-03 09:36:00,
2013-02-03 01:41:00,32.5,29.1,-100.00,SW,217,0.0,0.0,87,0.00,,,0.00,VWS V14.01,2013-02-03 09:41:00,
2013-02-03 01:46:00,32.7,29.3,-100.00,South,172,3.1,3.1,87,0.00,,,0.00,VWS V14.01,2013-02-03 09:46:00,
2013-02-03 01:51:00,32.7,29.0,-100.00,SW,232,0.0,0.0,86,0.00,,,0.00,VWS V14.01,2013-02-03 09:51:00,
2013-02-03 01:56:00,32.7,29.0,-100.00,SSW,206,2.2,3.6,86,0.00,,,0.00,VWS V14.01,2013-02-03 09:56:00,
2013-02-03 02:01:00,32.7,28.7,-100.00,WSW,256,3.1,3.1,85,0.00,,,0.00,VWS V14.01,2013-02-03 10:01:00,
2013-02-03 02:06:00,32.7,28.7,-100.00,South,175,0.0,0.0,85,0.00,,,0.00,VWS V14.01,2013-02-03 10:06:00,
2013-02-03 02:11:00,32.4,28.4,-100.00,SW,229,0.0,0.0,85,0.00,,,0.00,VWS V14.01,2013-02-03 10:11:00,
2013-02-03 02:16:00,32.2,28.2,-100.00,SSE,150,0.0,0.0,85,0.00,,,0.00,VWS V14.01,2013-02-03 10:16:00,
2013-02-03 02:21:00,32.0,28.3,-100.00,SSW,206,0.0,0.0,86,0.00,,,0.00,VWS V14.01,2013-02-03 10:21:00,
2013-02-03 02:26:00,32.0,28.3,-100.00,SW,236,0.0,0.0,86,0.00,,,0.00,VWS V14.01,2013-02-03 10:26:00,
2013-02-03 02:31:00,32.0,28.6,-100.00,South,177,0.0,0.0,87,0.00,,,0.00,VWS V14.01,2013-02-03 10:31:00,
2013-02-03 02:36:00,32.2,28.8,-100.00,SSW,192,2.7,4.0,87,0.00,,,0.00,VWS V14.01,2013-02-03 10:36:00,
2013-02-03 02:41:00,32.2,28.8,-100.00,SSE,168,3.1,3.1,87,0.00,,,0.00,VWS V14.01,2013-02-03 10:41:00,
2013-02-03 02:46:00,32.2,28.8,-100.00,SW,234,2.7,4.0,87,0.00,,,0.00,VWS V14.01,2013-02-03 10:46:00,
2013-02-03 02:51:00,32.2,28.8,-100.00,SW,219,2.7,2.7,87,0.00,,,0.00,VWS V14.01,2013-02-03 10:51:00,
2013-02-03 02:56:00,32.2,28.8,-100.00,SSW,194,3.1,3.1,87,0.00,,,0.00,VWS V14.01,2013-02-03 10:56:00,
2013-02-03 03:01:00,32.4,28.6,-100.00,SSE,165,3.1,3.1,86,0.00,,,0.00,VWS V14.01,2013-02-03 11:01:00,
2013-02-03 03:06:00,32.7,29.0,-100.00,SSW,212,2.7,4.9,86,0.00,,,0.00,VWS V14.01,2013-02-03 11:06:00,
2013-02-03 03:11:00,32.7,28.7,-100.00,SSW,204,2.2,3.6,85,0.00,,,0.00,VWS V14.01,2013-02-03 11:11:00,
2013-02-03 03:16:00,32.7,28.7,-100.00,SW,222,5.4,5.4,85,0.00,,,0.00,VWS V14.01,2013-02-03 11:16:00,
2013-02-03 03:21:00,32.7,28.4,-100.00,SW,221,2.7,3.1,84,0.00,,,0.00,VWS V14.01,2013-02-03 11:21:00,
2013-02-03 03:26:00,32.4,28.1,-100.00,SSW,207,3.6,3.6,84,0.00,,,0.00,VWS V14.01,2013-02-03 11:26:00,
2013-02-03 03:31:00,32.2,27.9,-100.00,SSW,207,0.0,0.0,84,0.00,,,0.00,VWS V14.01,2013-02-03 11:31:00,
2013-02-03 03:36:00,32.0,28.0,-100.00,SW,229,2.2,2.7,85,0.00,,,0.00,VWS V14.01,2013-02-03 11:36:00,
2013-02-03 03:41:00,31.6,27.7,-100.00,SSW,210,0.0,0.0,85,0.00,,,0.00,VWS V14.01,2013-02-03 11:41:00,
2013-02-03 03:46:00,31.3,27.3,-100.00,SSW,212,0.0,2.2,85,0.00,,,0.00,VWS V14.01,2013-02-03 11:46:00,
2013-02-03 03:51:00,31.1,27.4,-100.00,SW,230,0.0,0.0,86,0.00,,,0.00,VWS V14.01,2013-02-03 11:51:00,
2013-02-03 03:56:00,31.1,27.4,-100.00,SSW,212,0.0,0.0,86,0.00,,,0.00,VWS V14.01,2013-02-03 11:56:00,
2013-02-03 04:01:00,31.3,28.1,-100.00,SSW,207,2.7,2.7,88,0.00,,,0.00,VWS V14.01,2013-02-03 12:01:00,
2013-02-03 04:06:00,31.3,28.1,-100.00,SSW,200,2.2,2.7,88,0.00,,,0.00,VWS V14.01,2013-02-03 12:06:00,
2013-02-03 04:11:00,31.3,27.9,-100.00,SSW,213,3.6,4.0,87,0.00,,,0.00,VWS V14.01,2013-02-03 12:11:00,
2013-02-03 04:16:00,31.5,28.3,-100.00,SSW,192,0.0,0.0,88,0.00,,,0.00,VWS V14.01,2013-02-03 12:16:00,
2013-02-03 04:21:00,31.5,28.3,-100.00,SW,217,0.0,3.6,88,0.00,,,0.00,VWS V14.01,2013-02-03 12:21:00,
2013-02-03 04:26:00,31.3,27.9,-100.00,SSW,209,0.0,0.0,87,0.00,,,0.00,VWS V14.01,2013-02-03 12:26:00,
2013-02-03 04:31:00,31.1,27.7,-100.00,SSW,209,0.0,0.0,87,0.00,,,0.00,VWS V14.01,2013-02-03 12:31:00,
2013-02-03 04:36:00,31.1,27.7,-100.00,SW,215,3.1,3.1,87,0.00,,,0.00,VWS V14.01,2013-02-03 12:36:00,
2013-02-03 04:41:00,31.1,28.0,-100.00,SW,225,2.7,2.7,88,0.00,,,0.00,VWS V14.01,2013-02-03 12:41:00,
2013-02-03 04:46:00,31.1,28.0,-100.00,SW,218,0.0,2.7,88,0.00,,,0.00,VWS V14.01,2013-02-03 12:46:00,
2013-02-03 04:51:00,30.9,27.5,-100.00,SSW,212,2.7,2.7,87,0.00,,,0.00,VWS V14.01,2013-02-03 12:51:00,
2013-02-03 04:56:00,30.6,27.2,-100.00,SSW,196,2.7,3.1,87,0.00,,,0.00,VWS V14.01,2013-02-03 12:56:00,
2013-02-03 05:01:00,30.6,27.2,-100.00,SSW,213,2.7,2.7,87,0.00,,,0.00,VWS V14.01,2013-02-03 13:01:00,
2013-02-03 05:06:00,30.4,27.3,-100.00,SW,220,0.0,0.0,88,0.00,,,0.00,VWS V14.01,2013-02-03 13:06:00,
2013-02-03 05:11:00,30.4,27.3,-100.00,SSW,213,3.1,3.1,88,0.00,,,0.00,VWS V14.01,2013-02-03 13:11:00,
2013-02-03 05:16:00,30.4,27.3,-100.00,SSW,209,0.0,2.7,88,0.00,,,0.00,VWS V14.01,2013-02-03 13:16:00,
2013-02-03 05:21:00,30.2,27.4,-100.00,South,177,2.7,3.1,89,0.00,,,0.00,VWS V14.01,2013-02-03 13:21:00,
2013-02-03 05:26:00,30.4,27.5,-100.00,South,174,3.1,3.1,89,0.00,,,0.00,VWS V14.01,2013-02-03 13:26:00,
2013-02-03 05:31:00,30.6,27.7,-100.00,South,188,2.7,4.0,89,0.00,,,0.00,VWS V14.01,2013-02-03 13:31:00,
2013-02-03 05:36:00,30.4,27.5,-100.00,SSW,208,3.1,3.1,89,0.00,,,0.00,VWS V14.01,2013-02-03 13:36:00,
2013-02-03 05:41:00,30.4,27.5,-100.00,South,183,3.1,3.6,89,0.00,,,0.00,VWS V14.01,2013-02-03 13:41:00,
2013-02-03 05:46:00,30.4,27.5,-100.00,South,181,3.1,4.0,89,0.00,,,0.00,VWS V14.01,2013-02-03 13:46:00,
2013-02-03 05:51:00,30.4,27.5,-100.00,SSW,206,2.7,3.6,89,0.00,,,0.00,VWS V14.01,2013-02-03 13:51:00,
2013-02-03 05:56:00,30.4,27.5,-100.00,South,178,2.7,4.0,89,0.00,,,0.00,VWS V14.01,2013-02-03 13:56:00,
2013-02-03 06:01:00,30.4,27.5,-100.00,SE,145,3.1,4.0,89,0.00,,,0.00,VWS V14.01,2013-02-03 14:01:00,
2013-02-03 06:06:00,30.6,27.7,-100.00,SW,225,2.7,3.6,89,0.00,,,0.00,VWS V14.01,2013-02-03 14:06:00,
2013-02-03 06:11:00,30.6,27.7,-100.00,SSW,197,4.0,4.0,89,0.00,,,0.00,VWS V14.01,2013-02-03 14:11:00,
2013-02-03 06:16:00,30.6,27.7,-100.00,South,177,3.6,4.5,89,0.00,,,0.00,VWS V14.01,2013-02-03 14:16:00,
2013-02-03 06:21:00,30.6,27.7,-100.00,WSW,253,2.7,4.0,89,0.00,,,0.00,VWS V14.01,2013-02-03 14:21:00,
2013-02-03 06:26:00,30.6,27.7,-100.00,SSW,194,3.1,4.9,89,0.00,,,0.00,VWS V14.01,2013-02-03 14:26:00,
2013-02-03 06:31:00,30.4,27.5,-100.00,SW,214,2.7,3.1,89,0.00,,,0.00,VWS V14.01,2013-02-03 14:31:00,
2013-02-03 06:36:00,30.2,27.4,-100.00,SW,220,4.0,4.0,89,0.00,,,0.00,VWS V14.01,2013-02-03 14:36:00,
2013-02-03 06:41:00,30.0,27.2,-100.00,SSW,210,0.0,0.0,89,0.00,,,0.00,VWS V14.01,2013-02-03 14:41:00,
2013-02-03 06:46:00,29.7,26.8,-100.00,WSW,240,0.0,0.0,89,0.00,,,0.00,VWS V14.01,2013-02-03 14:46:00,
2013-02-03 06:51:00,29.5,26.4,-100.00,SW,225,0.0,3.1,88,0.00,,,0.00,VWS V14.01,2013-02-03 14:51:00,
2013-02-03 06:56:00,29.1,26.0,-100.00,South,182,0.0,0.0,88,0.00,,,0.00,VWS V14.01,2013-02-03 14:56:00,
2013-02-03 07:01:00,29.1,26.3,-100.00,SSW,193,2.2,3.1,89,0.00,,,0.00,VWS V14.01,2013-02-03 15:01:00,
2013-02-03 07:06:00,28.9,26.1,-100.00,South,182,3.1,4.9,89,0.00,,,0.00,VWS V14.01,2013-02-03 15:06:00,
2013-02-03 07:11:00,29.1,26.3,-100.00,SSW,203,2.7,3.6,89,0.00,,,0.00,VWS V14.01,2013-02-03 15:11:00,
2013-02-03 07:16:00,29.3,26.7,-100.00,South,191,2.2,2.7,90,0.00,,,0.00,VWS V14.01,2013-02-03 15:16:00,
2013-02-03 07:21:00,29.1,26.3,-100.00,SW,230,2.2,2.2,89,0.00,,,0.00,VWS V14.01,2013-02-03 15:21:00,
2013-02-03 07:26:00,29.1,26.3,-100.00,SSW,200,0.0,0.0,89,0.00,,,0.00,VWS V14.01,2013-02-03 15:26:00,
2013-02-03 07:31:00,29.3,26.7,-100.00,South,187,5.4,5.4,90,0.00,,,0.00,VWS V14.01,2013-02-03 15:31:00,
2013-02-03 07:36:00,29.5,26.9,-100.00,SSW,197,3.1,4.0,90,0.00,,,0.00,VWS V14.01,2013-02-03 15:36:00,
2013-02-03 07:41:00,29.5,26.9,-100.00,South,173,2.7,5.4,90,0.00,,,0.00,VWS V14.01,2013-02-03 15:41:00,
2013-02-03 07:46:00,29.8,27.3,-100.00,South,176,3.1,3.1,90,0.00,,,0.00,VWS V14.01,2013-02-03 15:46:00,
2013-02-03 07:51:00,30.2,27.6,-100.00,SSW,195,2.7,5.8,90,0.00,,,0.00,VWS V14.01,2013-02-03 15:51:00,
2013-02-03 07:56:00,30.4,27.8,-100.00,SW,218,2.7,3.6,90,0.00,,,0.00,VWS V14.01,2013-02-03 15:56:00,
2013-02-03 08:01:00,30.4,27.8,-100.00,South,189,4.0,4.0,90,0.00,,,0.00,VWS V14.01,2013-02-03 16:01:00,
2013-02-03 08:06:00,30.4,27.8,-100.00,SW,229,3.1,3.6,90,0.00,,,0.00,VWS V14.01,2013-02-03 16:06:00,
2013-02-03 08:11:00,30.7,28.2,-100.00,SW,232,0.0,0.0,90,0.00,,,0.00,VWS V14.01,2013-02-03 16:11:00,
2013-02-03 08:16:00,30.7,28.2,-100.00,SSE,168,2.7,3.1,90,0.00,,,0.00,VWS V14.01,2013-02-03 16:16:00,
2013-02-03 08:21:00,31.1,28.2,-100.00,South,172,3.1,3.1,89,0.00,,,0.00,VWS V14.01,2013-02-03 16:21:00,
2013-02-03 08:26:00,31.5,28.3,-100.00,SW,220,0.0,0.0,88,0.00,,,0.00,VWS V14.01,2013-02-03 16:26:00,
2013-02-03 08:31:00,32.0,28.9,-100.00,SSE,150,3.6,3.6,88,0.00,,,0.00,VWS V14.01,2013-02-03 16:31:00,
2013-02-03 08:36:00,32.7,28.4,-100.00,SW,218,3.1,3.6,84,0.00,,,0.00,VWS V14.01,2013-02-03 16:36:00,
2013-02-03 08:41:00,33.1,28.8,-100.00,SW,234,3.1,3.1,84,0.00,,,0.00,VWS V14.01,2013-02-03 16:41:00,
2013-02-03 08:46:00,33.1,28.2,-100.00,SW,214,0.0,2.7,82,0.00,,,0.00,VWS V14.01,2013-02-03 16:46:00,
2013-02-03 08:51:00,33.3,28.1,-100.00,South,170,2.7,4.0,81,0.00,,,0.00,VWS V14.01,2013-02-03 16:51:00,
2013-02-03 08:56:00,33.6,28.7,-100.00,South,171,2.7,3.1,82,0.00,,,0.00,VWS V14.01,2013-02-03 16:56:00,
2013-02-03 09:01:00,34.0,28.5,-100.00,SSW,207,0.0,3.1,80,0.00,,,0.00,VWS V14.01,2013-02-03 17:01:00,
2013-02-03 09:06:00,34.7,28.5,-100.00,South,189,3.6,3.6,78,0.00,,,0.00,VWS V14.01,2013-02-03 17:06:00,
2013-02-03 09:11:00,35.4,28.9,-100.00,South,187,2.7,5.8,77,0.00,,,0.00,VWS V14.01,2013-02-03 17:11:00,
2013-02-03 09:16:00,36.3,28.2,-100.00,South,180,4.0,5.4,72,0.00,,,0.00,VWS V14.01,2013-02-03 17:16:00,
2013-02-03 09:21:00,36.9,28.7,-100.00,SSW,199,2.7,2.7,72,0.00,,,0.00,VWS V14.01,2013-02-03 17:21:00,
2013-02-03 09:26:00,36.9,28.4,-100.00,South,187,4.9,4.9,71,0.00,,,0.00,VWS V14.01,2013-02-03 17:26:00,
2013-02-03 09:31:00,37.4,27.8,-100.00,South,186,4.0,4.0,68,0.00,,,0.00,VWS V14.01,2013-02-03 17:31:00,
2013-02-03 09:36:00,37.8,27.8,-100.00,SSW,194,3.6,3.6,67,0.00,,,0.00,VWS V14.01,2013-02-03 17:36:00,
2013-02-03 09:41:00,38.1,27.8,-100.00,SSE,167,6.3,6.3,66,0.00,,,0.00,VWS V14.01,2013-02-03 17:41:00,
2013-02-03 09:46:00,38.7,26.8,-100.00,South,191,3.6,10.5,62,0.00,,,0.00,VWS V14.01,2013-02-03 17:46:00,
2013-02-03 09:51:00,39.2,26.5,-100.00,SSE,154,5.8,6.3,60,0.00,,,0.00,VWS V14.01,2013-02-03 17:51:00,
2013-02-03 09:56:00,39.4,26.7,-100.00,South,189,6.7,6.7,60,0.00,,,0.00,VWS V14.01,2013-02-03 17:56:00,
2013-02-03 10:01:00,39.7,27.0,-100.00,SSE,155,3.6,5.4,60,0.00,,,0.00,VWS V14.01,2013-02-03 18:01:00,
2013-02-03 10:06:00,40.1,26.9,-100.00,SSE,149,4.0,6.3,59,0.00,,,0.00,VWS V14.01,2013-02-03 18:06:00,
2013-02-03 10:11:00,40.5,26.9,-100.00,South,172,3.1,3.1,58,0.00,,,0.00,VWS V14.01,2013-02-03 18:11:00,
2013-02-03 10:16:00,41.0,27.0,-100.00,SSE,151,6.3,6.3,57,0.00,,,0.00,VWS V14.01,2013-02-03 18:16:00,
2013-02-03 10:21:00,41.5,26.1,-100.00,SE,144,10.1,10.1,54,0.00,,,0.00,VWS V14.01,2013-02-03 18:21:00,
2013-02-03 10:26:00,41.7,26.3,-100.00,South,180,4.0,6.3,54,0.00,,,0.00,VWS V14.01,2013-02-03 18:26:00,
2013-02-03 10:31:00,42.1,26.6,-100.00,SW,226,5.8,5.8,54,0.00,,,0.00,VWS V14.01,2013-02-03 18:31:00,
2013-02-03 10:36:00,42.4,27.0,-100.00,South,191,4.9,6.3,54,0.00,,,0.00,VWS V14.01,2013-02-03 18:36:00,
2013-02-03 10:41:00,43.0,26.6,-100.00,South,169,6.3,8.7,52,0.00,,,0.00,VWS V14.01,2013-02-03 18:41:00,
2013-02-03 10:46:00,43.7,26.3,-100.00,SSE,147,3.6,7.6,50,0.00,,,0.00,VWS V14.01,2013-02-03 18:46:00,
2013-02-03 10:51:00,44.1,26.6,-100.00,SSE,153,6.7,8.7,50,0.00,,,0.00,VWS V14.01,2013-02-03 18:51:00,
2013-02-03 10:56:00,44.4,26.5,-100.00,SSE,153,5.4,5.4,49,0.00,,,0.00,VWS V14.01,2013-02-03 18:56:00,
2013-02-03 11:01:00,44.8,26.8,-100.00,South,173,3.1,3.6,49,0.00,,,0.00,VWS V14.01,2013-02-03 19:01:00,
2013-02-03 11:06:00,45.3,26.8,-100.00,South,171,3.6,4.0,48,0.00,,,0.00,VWS V14.01,2013-02-03 19:06:00,
2013-02-03 11:11:00,45.9,27.3,-100.00,SSE,149,10.1,10.1,48,0.00,,,0.00,VWS V14.01,2013-02-03 19:11:00,
2013-02-03 11:16:00,46.4,27.3,-100.00,SE,146,3.6,5.8,47,0.00,,,0.00,VWS V14.01,2013-02-03 19:16:00,
2013-02-03 11:21:00,46.8,27.1,-100.00,SSE,153,5.8,5.8,46,0.00,,,0.00,VWS V14.01,2013-02-03 19:21:00,
2013-02-03 11:26:00,47.1,27.4,-100.00,SW,219,4.9,4.9,46,0.00,,,0.00,VWS V14.01,2013-02-03 19:26:00,
2013-02-03 11:31:00,47.3,27.6,-100.00,South,185,3.6,4.5,46,0.00,,,0.00,VWS V14.01,2013-02-03 19:31:00,
2013-02-03 11:36:00,47.7,26.8,-100.00,South,190,3.6,4.9,44,0.00,,,0.00,VWS V14.01,2013-02-03 19:36:00,
2013-02-03 11:41:00,48.0,27.2,-100.00,SSW,205,3.6,4.0,44,0.00,,,0.00,VWS V14.01,2013-02-03 19:41:00,
2013-02-03 11:46:00,48.4,26.4,-100.00,SE,132,5.8,5.8,42,0.00,,,0.00,VWS V14.01,2013-02-03 19:46:00,
2013-02-03 11:51:00,48.9,26.3,-100.00,SSE,148,6.3,6.3,41,0.00,,,0.00,VWS V14.01,2013-02-03 19:51:00,
2013-02-03 11:56:00,49.3,26.6,-100.00,SW,218,8.3,8.3,41,0.00,,,0.00,VWS V14.01,2013-02-03 19:56:00,
2013-02-03 12:01:00,49.5,26.2,-100.00,South,175,5.4,5.4,40,0.00,,,0.00,VWS V14.01,2013-02-03 20:01:00,
2013-02-03 12:06:00,49.6,26.9,-100.00,SSE,159,4.0,4.0,41,0.00,,,0.00,VWS V14.01,2013-02-03 20:06:00,
2013-02-03 12:11:00,50.2,26.8,-100.00,SSE,163,4.9,4.9,40,0.00,,,0.00,VWS V14.01,2013-02-03 20:11:00,
2013-02-03 12:16:00,50.7,27.3,-100.00,SW,216,4.0,5.4,40,0.00,,,0.00,VWS V14.01,2013-02-03 20:16:00,
2013-02-03 12:21:00,50.9,26.8,-100.00,SSW,197,5.4,5.4,39,0.00,,,0.00,VWS V14.01,2013-02-03 20:21:00,
2013-02-03 12:26:00,51.4,27.9,-100.00,South,191,4.0,5.4,40,0.00,,,0.00,VWS V14.01,2013-02-03 20:26:00,
2013-02-03 12:31:00,52.5,27.7,-100.00,South,170,3.1,3.6,38,0.00,,,0.00,VWS V14.01,2013-02-03 20:31:00,
2013-02-03 12:36:00,52.9,28.0,-100.00,South,179,5.8,5.8,38,0.00,,,0.00,VWS V14.01,2013-02-03 20:36:00,
2013-02-03 12:41:00,52.7,27.8,-100.00,SE,145,5.8,5.8,38,0.00,,,0.00,VWS V14.01,2013-02-03 20:41:00,
2013-02-03 12:46:00,52.5,27.7,-100.00,SW,229,2.7,4.5,38,0.00,,,0.00,VWS V14.01,2013-02-03 20:46:00,
2013-02-03 12:51:00,52.3,26.9,-100.00,South,176,2.7,2.7,37,0.00,,,0.00,VWS V14.01,2013-02-03 20:51:00,
2013-02-03 12:56:00,52.3,27.5,-100.00,South,172,5.4,5.4,38,0.00,,,0.00,VWS V14.01,2013-02-03 20:56:00,
2013-02-03 13:01:00,52.7,27.2,-100.00,SSE,164,2.7,3.1,37,0.00,,,0.00,VWS V14.01,2013-02-03 21:01:00,
2013-02-03 13:06:00,53.2,27.7,-100.00,South,170,0.0,0.0,37,0.00,,,0.00,VWS V14.01,2013-02-03 21:06:00,
2013-02-03 13:11:00,53.2,27.7,-100.00,SE,144,0.0,0.0,37,0.00,,,0.00,VWS V14.01,2013-02-03 21:11:00,
2013-02-03 13:16:00,53.1,27.5,-100.00,South,191,3.1,3.1,37,0.00,,,0.00,VWS V14.01,2013-02-03 21:16:00,
2013-02-03 13:21:00,53.2,27.7,-100.00,South,179,3.6,3.6,37,0.00,,,0.00,VWS V14.01,2013-02-03 21:21:00,
2013-02-03 13:26:00,53.6,28.0,-100.00,South,184,0.0,0.0,37,0.00,,,0.00,VWS V14.01,2013-02-03 21:26:00,
2013-02-03 13:31:00,54.3,28.0,-100.00,SSW,192,3.1,3.1,36,0.00,,,0.00,VWS V14.01,2013-02-03 21:31:00,
2013-02-03 13:36:00,54.5,28.1,-100.00,SSW,213,3.1,3.1,36,0.00,,,0.00,VWS V14.01,2013-02-03 21:36:00,
2013-02-03 13:41:00,55.0,28.6,-100.00,SE,137,0.0,2.2,36,0.00,,,0.00,VWS V14.01,2013-02-03 21:41:00,
2013-02-03 13:46:00,55.8,28.5,-100.00,South,174,4.0,4.0,35,0.00,,,0.00,VWS V14.01,2013-02-03 21:46:00,
2013-02-03 13:51:00,55.9,28.7,-100.00,South,172,3.6,4.0,35,0.00,,,0.00,VWS V14.01,2013-02-03 21:51:00,
2013-02-03 13:56:00,55.8,28.5,-100.00,SW,232,0.0,0.0,35,0.00,,,0.00,VWS V14.01,2013-02-03 21:56:00,
2013-02-03 14:01:00,55.6,28.4,-100.00,SSW,208,2.2,2.7,35,0.00,,,0.00,VWS V14.01,2013-02-03 22:01:00,
2013-02-03 14:06:00,55.8,28.5,-100.00,SE,145,2.7,2.7,35,0.00,,,0.00,VWS V14.01,2013-02-03 22:06:00,
2013-02-03 14:11:00,55.8,27.8,-100.00,NW,305,4.0,4.0,34,0.00,,,0.00,VWS V14.01,2013-02-03 22:11:00,
2013-02-03 14:16:00,55.6,26.2,-100.00,WSW,247,2.7,3.1,32,0.00,,,0.00,VWS V14.01,2013-02-03 22:16:00,
2013-02-03 14:21:00,55.6,25.5,-100.00,SSW,192,3.1,3.1,31,0.00,,,0.00,VWS V14.01,2013-02-03 22:21:00,
2013-02-03 14:26:00,55.4,25.3,-100.00,SW,222,0.0,0.0,31,0.00,,,0.00,VWS V14.01,2013-02-03 22:26:00,
2013-02-03 14:31:00,55.2,25.9,-100.00,SSW,202,0.0,0.0,32,0.00,,,0.00,VWS V14.01,2013-02-03 22:31:00,
2013-02-03 14:36:00,54.9,25.6,-100.00,SSW,205,0.0,0.0,32,0.00,,,0.00,VWS V14.01,2013-02-03 22:36:00,
2013-02-03 14:41:00,54.7,26.2,-100.00,SW,223,0.0,0.0,33,0.00,,,0.00,VWS V14.01,2013-02-03 22:41:00,
2013-02-03 14:46:00,54.5,26.0,-100.00,West,268,0.0,0.0,33,0.00,,,0.00,VWS V14.01,2013-02-03 22:46:00,
2013-02-03 14:51:00,54.5,25.3,-100.00,SSW,199,0.0,0.0,32,0.00,,,0.00,VWS V14.01,2013-02-03 22:51:00,
2013-02-03 14:56:00,54.3,23.6,-100.00,NNW,343,0.0,0.0,30,0.00,,,0.00,VWS V14.01,2013-02-03 22:56:00,
2013-02-03 15:01:00,54.3,24.4,-100.00,South,182,2.7,4.0,31,0.00,,,0.00,VWS V14.01,2013-02-03 23:01:00,
2013-02-03 15:06:00,54.1,24.2,-100.00,WSW,255,0.0,0.0,31,0.00,,,0.00,VWS V14.01,2013-02-03 23:06:00,
2013-02-03 15:11:00,54.1,24.2,-100.00,West,269,0.0,0.0,31,0.00,,,0.00,VWS V14.01,2013-02-03 23:11:00,
2013-02-03 15:16:00,54.0,23.2,-100.00,SW,221,0.0,0.0,30,0.00,,,0.00,VWS V14.01,2013-02-03 23:16:00,
2013-02-03 15:20:00,54.0,23.2,-100.00,WSW,254,0.0,0.0,30,0.00,,,0.00,VWS V14.01,2013-02-03 23:20:00,
2013-02-03 15:25:00,54.0,22.5,-100.00,WNW,291,0.0,0.0,29,0.00,,,0.00,VWS V14.01,2013-02-03 23:25:00,
2013-02-03 15:30:00,53.8,23.1,-100.00,West,261,3.6,4.0,30,0.00,,,0.00,VWS V14.01,2013-02-03 23:30:00,
2013-02-03 15:35:00,53.4,22.0,-100.00,West,279,4.0,8.3,29,0.00,,,0.00,VWS V14.01,2013-02-03 23:35:00,
2013-02-03 15:40:00,53.6,22.1,-100.00,West,261,4.5,5.8,29,0.00,,,0.00,VWS V14.01,2013-02-03 23:40:00,
2013-02-03 15:45:00,53.4,22.0,-100.00,SW,223,7.6,7.6,29,0.00,,,0.00,VWS V14.01,2013-02-03 23:45:00,
2013-02-03 15:50:00,53.2,21.8,-100.00,WNW,283,4.0,5.8,29,0.00,,,0.00,VWS V14.01,2013-02-03 23:50:00,
2013-02-03 15:55:00,53.1,21.7,-100.00,WNW,283,3.6,4.9,29,0.00,,,0.00,VWS V14.01,2013-02-03 23:55:00,
2013-02-03 16:00:00,52.7,21.4,-100.00,WSW,251,2.7,4.0,29,0.00,,,0.00,VWS V14.01,2013-02-04 00:00:00,
2013-02-03 16:05:00,52.3,21.0,-100.00,West,267,4.9,4.9,29,0.00,,,0.00,VWS V14.01,2013-02-04 00:05:00,
2013-02-03 16:10:00,52.3,21.0,-100.00,WNW,300,6.7,7.2,29,0.00,,,0.00,VWS V14.01,2013-02-04 00:10:00,
2013-02-03 16:15:00,52.2,20.9,-100.00,West,262,3.6,5.8,29,0.00,,,0.00,VWS V14.01,2013-02-04 00:15:00,
2013-02-03 16:20:00,52.0,21.5,-100.00,West,281,2.7,3.6,30,0.00,,,0.00,VWS V14.01,2013-02-04 00:20:00,
2013-02-03 16:25:00,51.6,21.2,-100.00,WSW,253,2.7,3.6,30,0.00,,,0.00,VWS V14.01,2013-02-04 00:25:00,
2013-02-03 16:30:00,51.4,21.1,-100.00,WSW,246,4.9,4.9,30,0.00,,,0.00,VWS V14.01,2013-02-04 00:30:00,
2013-02-03 16:35:00,51.1,20.8,-100.00,SSW,212,2.2,4.0,30,0.00,,,0.00,VWS V14.01,2013-02-04 00:35:00,
2013-02-03 16:40:00,50.7,20.4,-100.00,West,263,0.0,0.0,30,0.00,,,0.00,VWS V14.01,2013-02-04 00:40:00,
2013-02-03 16:45:00,50.4,20.1,-100.00,SW,226,2.2,2.7,30,0.00,,,0.00,VWS V14.01,2013-02-04 00:45:00,
2013-02-03 16:50:00,50.2,20.7,-100.00,WSW,252,0.0,3.1,31,0.00,,,0.00,VWS V14.01,2013-02-04 00:50:00,
2013-02-03 16:55:00,49.8,20.4,-100.00,WSW,258,0.0,2.7,31,0.00,,,0.00,VWS V14.01,2013-02-04 00:55:00,
2013-02-03 17:00:00,49.5,20.1,-100.00,South,178,0.0,0.0,31,0.00,,,0.00,VWS V14.01,2013-02-04 01:00:00,
2013-02-03 17:05:00,49.1,20.5,-100.00,SSW,213,0.0,0.0,32,0.00,,,0.00,VWS V14.01,2013-02-04 01:05:00,
2013-02-03 17:10:00,48.9,20.4,-100.00,SW,235,0.0,0.0,32,0.00,,,0.00,VWS V14.01,2013-02-04 01:10:00,
2013-02-03 17:15:00,48.6,20.1,-100.00,WNW,293,3.1,3.1,32,0.00,,,0.00,VWS V14.01,2013-02-04 01:15:00,
2013-02-03 17:20:00,48.4,19.9,-100.00,WSW,243,2.2,3.1,32,0.00,,,0.00,VWS V14.01,2013-02-04 01:20:00,
2013-02-03 17:25:00,48.4,19.9,-100.00,West,273,0.0,0.0,32,0.00,,,0.00,VWS V14.01,2013-02-04 01:25:00,
2013-02-03 17:30:00,48.7,20.2,-100.00,NW,316,2.7,4.0,32,0.00,,,0.00,VWS V14.01,2013-02-04 01:30:00,
2013-02-03 17:35:00,49.3,20.7,-100.00,WSW,239,2.2,4.0,32,0.00,,,0.00,VWS V14.01,2013-02-04 01:35:00,
2013-02-03 17:40:00,49.6,20.3,-100.00,WNW,291,0.0,3.6,31,0.00,,,0.00,VWS V14.01,2013-02-04 01:40:00,
2013-02-03 17:45:00,49.6,21.0,-100.00,WNW,301,3.1,4.0,32,0.00,,,0.00,VWS V14.01,2013-02-04 01:45:00,
2013-02-03 17:50:00,49.6,21.0,-100.00,WNW,299,0.0,3.1,32,0.00,,,0.00,VWS V14.01,2013-02-04 01:50:00,
2013-02-03 17:55:00,49.3,19.9,-100.00,WNW,286,0.0,4.0,31,0.00,,,0.00,VWS V14.01,2013-02-04 01:55:00,
2013-02-03 18:00:00,48.9,20.4,-100.00,NW,325,0.0,5.4,32,0.00,,,0.00,VWS V14.01,2013-02-04 02:00:00,
2013-02-03 18:05:00,48.9,20.4,-100.00,WNW,300,2.7,4.0,32,0.00,,,0.00,VWS V14.01,2013-02-04 02:05:00,
2013-02-03 18:10:00,48.9,19.6,-100.00,WNW,302,0.0,4.9,31,0.00,,,0.00,VWS V14.01,2013-02-04 02:10:00,
2013-02-03 18:15:00,49.3,19.9,-100.00,West,270,4.0,4.0,31,0.00,,,0.00,VWS V14.01,2013-02-04 02:15:00,
2013-02-03 18:20:00,49.6,20.3,-100.00,NW,316,2.7,5.8,31,0.00,,,0.00,VWS V14.01,2013-02-04 02:20:00,
2013-02-03 18:25:00,49.6,20.3,-100.00,SW,223,0.0,0.0,31,0.00,,,0.00,VWS V14.01,2013-02-04 02:25:00,
2013-02-03 18:30:00,49.5,20.1,-100.00,WSW,240,0.0,3.6,31,0.00,,,0.00,VWS V14.01,2013-02-04 02:30:00,
2013-02-03 18:35:00,49.5,20.1,-100.00,WNW,298,5.8,5.8,31,0.00,,,0.00,VWS V14.01,2013-02-04 02:35:00,
2013-02-03 18:40:00,49.3,19.9,-100.00,SW,233,4.0,4.9,31,0.00,,,0.00,VWS V14.01,2013-02-04 02:40:00,
2013-02-03 18:45:00,49.1,20.5,-100.00,SW,234,3.1,4.0,32,0.00,,,0.00,VWS V14.01,2013-02-04 02:45:00,
2013-02-03 18:50:00,49.1,19.8,-100.00,SSW,205,3.6,4.0,31,0.00,,,0.00,VWS V14.01,2013-02-04 02:50:00,
2013-02-03 18:55:00,49.3,19.9,-100.00,West,264,3.1,3.6,31,0.00,,,0.00,VWS V14.01,2013-02-04 02:55:00,
2013-02-03 19:00:00,49.1,20.5,-100.00,West,277,4.0,4.0,32,0.00,,,0.00,VWS V14.01,2013-02-04 03:00:00,
2013-02-03 19:05:00,48.9,20.4,-100.00,WNW,283,0.0,0.0,32,0.00,,,0.00,VWS V14.01,2013-02-04 03:05:00,
2013-02-03 19:10:00,48.7,20.2,-100.00,West,270,0.0,0.0,32,0.00,,,0.00,VWS V14.01,2013-02-04 03:10:00,
2013-02-03 19:15:00,48.7,20.2,-100.00,WSW,250,4.9,7.2,32,0.00,,,0.00,VWS V14.01,2013-02-04 03:15:00,
2013-02-03 19:20:00,48.7,20.2,-100.00,WNW,302,3.6,4.0,32,0.00,,,0.00,VWS V14.01,2013-02-04 03:20:00,
2013-02-03 19:25:00,48.7,20.2,-100.00,West,276,4.0,4.0,32,0.00,,,0.00,VWS V14.01,2013-02-04 03:25:00,
2013-02-03 19:30:00,48.7,20.2,-100.00,West,267,0.0,2.7,32,0.00,,,0.00,VWS V14.01,2013-02-04 03:30:00,
2013-02-03 19:35:00,48.9,20.4,-100.00,West,278,8.1,8.1,32,0.00,,,0.00,VWS V14.01,2013-02-04 03:35:00,
2013-02-03 19:40:00,48.9,19.6,-100.00,NNW,329,3.1,4.9,31,0.00,,,0.00,VWS V14.01,2013-02-04 03:40:00,
2013-02-03 19:45:00,49.1,20.5,-100.00,SW,224,3.1,3.1,32,0.00,,,0.00,VWS V14.01,2013-02-04 03:45:00,
2013-02-03 19:50:00,49.1,20.5,-100.00,WSW,240,2.2,2.7,32,0.00,,,0.00,VWS V14.01,2013-02-04 03:50:00,
2013-02-03 19:55:00,49.3,19.9,-100.00,NW,319,0.0,0.0,31,0.00,,,0.00,VWS V14.01,2013-02-04 03:55:00,
2013-02-03 20:00:00,49.3,19.9,-100.00,WSW,254,3.1,3.1,31,0.00,,,0.00,VWS V14.01,2013-02-04 04:00:00,
2013-02-03 20:05:00,49.3,19.9,-100.00,SW,229,4.0,5.4,31,0.00,,,0.00,VWS V14.01,2013-02-04 04:05:00,
2013-02-03 20:10:00,49.1,20.5,-100.00,WSW,247,0.0,3.6,32,0.00,,,0.00,VWS V14.01,2013-02-04 04:10:00,
2013-02-03 20:15:00,48.9,20.4,-100.00,WSW,243,3.1,4.9,32,0.00,,,0.00,VWS V14.01,2013-02-04 04:15:00,
2013-02-03 20:20:00,48.7,19.5,-100.00,SSE,150,0.0,2.7,31,0.00,,,0.00,VWS V14.01,2013-02-04 04:20:00,
2013-02-03 20:25:00,48.7,20.2,-100.00,SW,233,0.0,0.0,32,0.00,,,0.00,VWS V14.01,2013-02-04 04:25:00,
2013-02-03 20:30:00,48.7,20.2,-100.00,WSW,251,2.7,2.7,32,0.00,,,0.00,VWS V14.01,2013-02-04 04:30:00,
2013-02-03 20:35:00,48.6,20.1,-100.00,ENE,67,0.0,0.0,32,0.00,,,0.00,VWS V14.01,2013-02-04 04:35:00,
2013-02-03 20:40:00,48.4,20.6,-100.00,ENE,64,0.0,0.0,33,0.00,,,0.00,VWS V14.01,2013-02-04 04:40:00,
2013-02-03 20:45:00,47.7,20.7,-100.00,ENE,64,0.0,0.0,34,0.00,,,0.00,VWS V14.01,2013-02-04 04:45:00,
2013-02-03 20:50:00,47.1,20.2,-100.00,ENE,64,0.0,0.0,34,0.00,,,0.00,VWS V14.01,2013-02-04 04:50:00,
2013-02-03 20:55:00,46.6,21.7,-100.00,WNW,288,0.0,0.0,37,0.00,,,0.00,VWS V14.01,2013-02-04 04:55:00,
2013-02-03 21:00:00,46.2,21.4,-100.00,WNW,288,0.0,0.0,37,0.00,,,0.00,VWS V14.01,2013-02-04 05:00:00,
2013-02-03 21:01:00,46.2,21.4,-100.00,WNW,288,0.0,0.0,37,0.00,,,0.00,VWS V14.01,2013-02-04 05:01:00,
2013-02-03 21:02:00,46.2,21.4,-100.00,WNW,288,0.0,0.0,37,0.00,,,0.00,VWS V14.01,2013-02-04 05:02:00,
2013-02-03 21:07:00,45.9,21.1,-100.00,WNW,288,0.0,0.0,37,0.00,,,0.00,VWS V14.01,2013-02-04 05:07:00,
2013-02-03 21:12:00,45.5,21.4,-100.00,WNW,288,0.0,0.0,38,0.00,,,0.00,VWS V14.01,2013-02-04 05:12:00,
2013-02-03 21:17:00,44.8,20.7,-100.00,WNW,288,0.0,0.0,38,0.00,,,0.00,VWS V14.01,2013-02-04 05:17:00,
2013-02-03 21:22:00,44.6,20.6,-100.00,WNW,288,0.0,0.0,38,0.00,,,0.00,VWS V14.01,2013-02-04 05:22:00,
2013-02-03 21:27:00,44.4,21.0,-100.00,WNW,288,0.0,0.0,39,0.00,,,0.00,VWS V14.01,2013-02-04 05:27:00,
2013-02-03 21:32:00,44.2,21.5,-100.00,WNW,288,0.0,0.0,40,0.00,,,0.00,VWS V14.01,2013-02-04 05:32:00,
2013-02-03 21:37:00,44.1,21.3,-100.00,WNW,288,0.0,0.0,40,0.00,,,0.00,VWS V14.01,2013-02-04 05:37:00,
2013-02-03 21:42:00,43.7,21.0,-100.00,WNW,288,0.0,0.0,40,0.00,,,0.00,VWS V14.01,2013-02-04 05:42:00,
2013-02-03 21:47:00,43.7,21.0,-100.00,WSW,241,0.0,0.0,40,0.00,,,0.00,VWS V14.01,2013-02-04 05:47:00,
2013-02-03 21:52:00,43.5,21.4,-100.00,WSW,241,0.0,0.0,41,0.00,,,0.00,VWS V14.01,2013-02-04 05:52:00,
2013-02-03 21:57:00,43.3,21.8,-100.00,WSW,241,0.0,0.0,42,0.00,,,0.00,VWS V14.01,2013-02-04 05:57:00,
2013-02-03 22:02:00,43.0,22.0,-100.00,WSW,241,0.0,0.0,43,0.00,,,0.00,VWS V14.01,2013-02-04 06:02:00,
2013-02-03 22:07:00,42.6,22.2,-100.00,WSW,241,0.0,0.0,44,0.00,,,0.00,VWS V14.01,2013-02-04 06:07:00,
2013-02-03 22:12:00,42.3,21.4,-100.00,WSW,241,0.0,0.0,43,0.00,,,0.00,VWS V14.01,2013-02-04 06:12:00,
2013-02-03 22:17:00,41.9,21.6,-100.00,WSW,241,0.0,0.0,44,0.00,,,0.00,VWS V14.01,2013-02-04 06:17:00,
2013-02-03 22:22:00,41.7,21.4,-100.00,WSW,241,0.0,0.0,44,0.00,,,0.00,VWS V14.01,2013-02-04 06:22:00,
2013-02-03 22:27:00,41.5,21.8,-100.00,WSW,241,0.0,0.0,45,0.00,,,0.00,VWS V14.01,2013-02-04 06:27:00,
2013-02-03 22:32:00,41.5,21.3,-100.00,WSW,241,0.0,0.0,44,0.00,,,0.00,VWS V14.01,2013-02-04 06:32:00,
2013-02-03 22:37:00,41.4,21.6,-100.00,WSW,241,0.0,0.0,45,0.00,,,0.00,VWS V14.01,2013-02-04 06:37:00,
2013-02-03 22:42:00,41.0,21.3,-100.00,WSW,241,0.0,0.0,45,0.00,,,0.00,VWS V14.01,2013-02-04 06:42:00,
2013-02-03 22:47:00,40.6,21.5,-100.00,WSW,241,0.0,0.0,46,0.00,,,0.00,VWS V14.01,2013-02-04 06:47:00,
2013-02-03 22:51:00,40.5,21.8,-100.00,WSW,241,0.0,0.0,47,0.00,,,0.00,VWS V14.01,2013-02-04 06:51:00,
2013-02-03 22:56:00,40.3,21.7,-100.00,WSW,241,0.0,0.0,47,0.00,,,0.00,VWS V14.01,2013-02-04 06:56:00,
2013-02-03 23:01:00,40.3,22.2,-100.00,WSW,241,0.0,0.0,48,0.00,,,0.00,VWS V14.01,2013-02-04 07:01:00,
2013-02-03 23:06:00,40.1,22.5,-100.00,WSW,241,0.0,0.0,49,0.00,,,0.00,VWS V14.01,2013-02-04 07:06:00,
2013-02-03 23:11:00,39.7,22.2,-100.00,WSW,241,0.0,0.0,49,0.00,,,0.00,VWS V14.01,2013-02-04 07:11:00,
2013-02-03 23:16:00,39.7,22.2,-100.00,WSW,241,0.0,0.0,49,0.00,,,0.00,VWS V14.01,2013-02-04 07:16:00,
2013-02-03 23:21:00,39.6,22.5,-100.00,WSW,241,0.0,0.0,50,0.00,,,0.00,VWS V14.01,2013-02-04 07:21:00,
2013-02-03 23:26:00,39.4,22.3,-100.00,WSW,241,0.0,0.0,50,0.00,,,0.00,VWS V14.01,2013-02-04 07:26:00,
2013-02-03 23:31:00,39.6,22.5,-100.00,SSE,167,0.0,0.0,50,0.00,,,0.00,VWS V14.01,2013-02-04 07:31:00,
2013-02-03 23:36:00,39.7,22.6,-100.00,SSE,150,0.0,0.0,50,0.00,,,0.00,VWS V14.01,2013-02-04 07:36:00,
2013-02-03 23:41:00,39.9,22.8,-100.00,South,174,0.0,0.0,50,0.00,,,0.00,VWS V14.01,2013-02-04 07:41:00,
2013-02-03 23:46:00,39.9,22.8,-100.00,South,173,0.0,0.0,50,0.00,,,0.00,VWS V14.01,2013-02-04 07:46:00,
2013-02-03 23:51:00,40.1,23.0,-100.00,SSE,150,0.0,0.0,50,0.00,,,0.00,VWS V14.01,2013-02-04 07:51:00,
2013-02-03 23:56:00,40.1,23.0,-100.00,SSE,150,0.0,0.0,50,0.00,,,0.00,VWS V14.01,2013-02-04 07:56:00,